sensor_id;sensor_type;location;lat;lon;timestamp;temperature;humidity
41592;DHT22;28026;48.562;14.440;2023-04-25T00:02:05;5.50;99.90
41592;DHT22;28026;48.562;14.440;2023-04-25T00:04:37;5.50;99.90
41592;DHT22;28026;48.562;14.440;2023-04-25T00:07:08;5.40;99.90
41592;DHT22;28026;48.562;14.440;2023-04-25T00:09:38;5.40;99.90
41592;DHT22;28026;48.562;14.440;2023-04-25T00:12:09;5.40;99.90
41592;DHT22;28026;48.562;14.440;2023-04-25T00:14:40;5.30;99.90
41592;DHT22;28026;48.562;14.440;2023-04-25T00:17:11;5.30;99.90
41592;DHT22;28026;48.562;14.440;2023-04-25T00:19:42;5.40;99.90
41592;DHT22;28026;48.562;14.440;2023-04-25T00:22:14;5.30;99.90
41592;DHT22;28026;48.562;14.440;2023-04-25T00:24:46;5.30;99.90
41592;DHT22;28026;48.562;14.440;2023-04-25T00:27:16;5.40;99.90
41592;DHT22;28026;48.562;14.440;2023-04-25T00:29:47;5.30;99.90
41592;DHT22;28026;48.562;14.440;2023-04-25T00:32:18;5.30;99.90
41592;DHT22;28026;48.562;14.440;2023-04-25T00:34:49;5.30;99.90
41592;DHT22;28026;48.562;14.440;2023-04-25T00:37:19;5.30;99.90
41592;DHT22;28026;48.562;14.440;2023-04-25T00:39:50;5.40;99.90
41592;DHT22;28026;48.562;14.440;2023-04-25T00:42:24;5.50;99.90
41592;DHT22;28026;48.562;14.440;2023-04-25T00:44:55;5.40;99.90
41592;DHT22;28026;48.562;14.440;2023-04-25T00:47:27;5.40;99.90
41592;DHT22;28026;48.562;14.440;2023-04-25T00:49:58;5.30;99.90
41592;DHT22;28026;48.562;14.440;2023-04-25T00:52:29;5.30;99.90
41592;DHT22;28026;48.562;14.440;2023-04-25T00:55:00;5.40;99.90
41592;DHT22;28026;48.562;14.440;2023-04-25T00:57:31;5.40;99.90
41592;DHT22;28026;48.562;14.440;2023-04-25T01:00:03;5.30;99.90
41592;DHT22;28026;48.562;14.440;2023-04-25T01:02:36;5.30;99.90
41592;DHT22;28026;48.562;14.440;2023-04-25T01:05:08;5.30;99.90
41592;DHT22;28026;48.562;14.440;2023-04-25T01:07:39;5.30;99.90
41592;DHT22;28026;48.562;14.440;2023-04-25T01:10:10;5.30;99.90
41592;DHT22;28026;48.562;14.440;2023-04-25T01:12:41;5.30;99.90
41592;DHT22;28026;48.562;14.440;2023-04-25T01:15:12;5.20;99.90
41592;DHT22;28026;48.562;14.440;2023-04-25T01:17:43;5.30;99.90
41592;DHT22;28026;48.562;14.440;2023-04-25T01:20:14;5.20;99.90
41592;DHT22;28026;48.562;14.440;2023-04-25T01:22:46;5.20;99.90
41592;DHT22;28026;48.562;14.440;2023-04-25T01:25:18;5.20;99.90
41592;DHT22;28026;48.562;14.440;2023-04-25T01:27:49;5.20;99.90
41592;DHT22;28026;48.562;14.440;2023-04-25T01:30:20;5.00;99.90
41592;DHT22;28026;48.562;14.440;2023-04-25T01:32:51;5.00;99.90
41592;DHT22;28026;48.562;14.440;2023-04-25T01:35:26;5.00;99.90
41592;DHT22;28026;48.562;14.440;2023-04-25T01:37:57;4.90;99.90
41592;DHT22;28026;48.562;14.440;2023-04-25T01:40:29;5.00;99.90
41592;DHT22;28026;48.562;14.440;2023-04-25T01:43:00;4.90;99.90
41592;DHT22;28026;48.562;14.440;2023-04-25T01:45:31;4.90;99.90
41592;DHT22;28026;48.562;14.440;2023-04-25T01:48:03;4.80;99.90
41592;DHT22;28026;48.562;14.440;2023-04-25T01:50:34;4.80;99.90
41592;DHT22;28026;48.562;14.440;2023-04-25T01:53:05;4.90;99.90
41592;DHT22;28026;48.562;14.440;2023-04-25T01:55:36;4.90;99.90
41592;DHT22;28026;48.562;14.440;2023-04-25T01:58:08;4.90;99.90
41592;DHT22;28026;48.562;14.440;2023-04-25T02:00:40;5.00;99.90
41592;DHT22;28026;48.562;14.440;2023-04-25T02:03:11;4.90;99.90
41592;DHT22;28026;48.562;14.440;2023-04-25T02:05:41;4.90;99.90
41592;DHT22;28026;48.562;14.440;2023-04-25T02:08:12;4.80;99.90
41592;DHT22;28026;48.562;14.440;2023-04-25T02:10:43;4.70;99.90
41592;DHT22;28026;48.562;14.440;2023-04-25T02:13:14;4.80;99.90
41592;DHT22;28026;48.562;14.440;2023-04-25T02:15:45;4.80;99.90
41592;DHT22;28026;48.562;14.440;2023-04-25T02:18:16;4.90;99.90
41592;DHT22;28026;48.562;14.440;2023-04-25T02:20:47;4.90;99.90
41592;DHT22;28026;48.562;14.440;2023-04-25T02:23:17;4.90;99.90
41592;DHT22;28026;48.562;14.440;2023-04-25T02:25:49;4.90;99.90
41592;DHT22;28026;48.562;14.440;2023-04-25T02:28:21;4.90;99.90
41592;DHT22;28026;48.562;14.440;2023-04-25T02:30:53;5.00;99.90
41592;DHT22;28026;48.562;14.440;2023-04-25T02:33:24;5.00;99.90
41592;DHT22;28026;48.562;14.440;2023-04-25T02:35:55;4.90;99.90
41592;DHT22;28026;48.562;14.440;2023-04-25T02:38:26;4.90;99.90
41592;DHT22;28026;48.562;14.440;2023-04-25T02:40:56;4.90;99.90
41592;DHT22;28026;48.562;14.440;2023-04-25T02:43:27;4.90;99.90
41592;DHT22;28026;48.562;14.440;2023-04-25T02:45:58;4.90;99.90
41592;DHT22;28026;48.562;14.440;2023-04-25T02:48:29;4.80;99.90
41592;DHT22;28026;48.562;14.440;2023-04-25T02:50:59;4.40;99.90
41592;DHT22;28026;48.562;14.440;2023-04-25T02:53:30;4.50;99.90
41592;DHT22;28026;48.562;14.440;2023-04-25T02:56:01;4.70;99.90
41592;DHT22;28026;48.562;14.440;2023-04-25T02:58:32;4.80;99.90
41592;DHT22;28026;48.562;14.440;2023-04-25T03:01:03;4.90;99.90
41592;DHT22;28026;48.562;14.440;2023-04-25T03:03:34;4.90;99.90
41592;DHT22;28026;48.562;14.440;2023-04-25T03:06:04;4.90;99.90
41592;DHT22;28026;48.562;14.440;2023-04-25T03:08:35;4.90;99.90
41592;DHT22;28026;48.562;14.440;2023-04-25T03:11:06;4.40;99.90
41592;DHT22;28026;48.562;14.440;2023-04-25T03:13:37;3.80;99.90
41592;DHT22;28026;48.562;14.440;2023-04-25T03:16:08;3.60;99.90
41592;DHT22;28026;48.562;14.440;2023-04-25T03:18:38;3.70;99.90
41592;DHT22;28026;48.562;14.440;2023-04-25T03:21:09;3.80;99.90
41592;DHT22;28026;48.562;14.440;2023-04-25T03:23:40;3.90;99.90
41592;DHT22;28026;48.562;14.440;2023-04-25T03:26:11;3.80;99.90
41592;DHT22;28026;48.562;14.440;2023-04-25T03:28:41;3.90;99.90
41592;DHT22;28026;48.562;14.440;2023-04-25T03:31:12;4.10;99.90
41592;DHT22;28026;48.562;14.440;2023-04-25T03:33:43;4.10;99.90
41592;DHT22;28026;48.562;14.440;2023-04-25T03:36:13;4.10;99.90
41592;DHT22;28026;48.562;14.440;2023-04-25T03:38:44;4.00;99.90
41592;DHT22;28026;48.562;14.440;2023-04-25T03:41:15;4.00;99.90
41592;DHT22;28026;48.562;14.440;2023-04-25T03:43:46;4.00;99.90
41592;DHT22;28026;48.562;14.440;2023-04-25T03:46:17;4.00;99.90
41592;DHT22;28026;48.562;14.440;2023-04-25T03:48:47;4.00;99.90
41592;DHT22;28026;48.562;14.440;2023-04-25T03:51:18;4.10;99.90
41592;DHT22;28026;48.562;14.440;2023-04-25T03:53:49;4.10;99.90
41592;DHT22;28026;48.562;14.440;2023-04-25T03:56:20;4.00;99.90
41592;DHT22;28026;48.562;14.440;2023-04-25T03:58:51;4.00;99.90
41592;DHT22;28026;48.562;14.440;2023-04-25T04:01:21;3.90;99.90
41592;DHT22;28026;48.562;14.440;2023-04-25T04:03:52;3.90;99.90
41592;DHT22;28026;48.562;14.440;2023-04-25T04:06:23;3.90;99.90
41592;DHT22;28026;48.562;14.440;2023-04-25T04:08:54;3.90;99.90
41592;DHT22;28026;48.562;14.440;2023-04-25T04:11:25;4.00;99.90
41592;DHT22;28026;48.562;14.440;2023-04-25T04:13:56;4.00;99.90
41592;DHT22;28026;48.562;14.440;2023-04-25T04:16:27;3.90;99.90
41592;DHT22;28026;48.562;14.440;2023-04-25T04:18:58;3.90;99.90
41592;DHT22;28026;48.562;14.440;2023-04-25T04:21:28;3.90;99.90
41592;DHT22;28026;48.562;14.440;2023-04-25T04:24:00;4.10;99.90
41592;DHT22;28026;48.562;14.440;2023-04-25T04:26:31;4.20;99.90
41592;DHT22;28026;48.562;14.440;2023-04-25T04:29:03;4.30;99.90
41592;DHT22;28026;48.562;14.440;2023-04-25T04:31:33;4.40;99.90
41592;DHT22;28026;48.562;14.440;2023-04-25T04:34:04;4.40;99.90
41592;DHT22;28026;48.562;14.440;2023-04-25T04:36:35;4.40;99.90
41592;DHT22;28026;48.562;14.440;2023-04-25T04:39:06;4.30;99.90
41592;DHT22;28026;48.562;14.440;2023-04-25T04:41:36;4.40;99.90
41592;DHT22;28026;48.562;14.440;2023-04-25T04:44:07;4.30;99.90
41592;DHT22;28026;48.562;14.440;2023-04-25T04:46:39;4.20;99.90
41592;DHT22;28026;48.562;14.440;2023-04-25T04:49:11;4.10;99.90
41592;DHT22;28026;48.562;14.440;2023-04-25T04:51:42;4.10;99.90
41592;DHT22;28026;48.562;14.440;2023-04-25T04:54:17;4.10;99.90
41592;DHT22;28026;48.562;14.440;2023-04-25T04:56:48;4.20;99.90
41592;DHT22;28026;48.562;14.440;2023-04-25T04:59:19;4.30;99.90
41592;DHT22;28026;48.562;14.440;2023-04-25T05:01:49;4.50;99.90
41592;DHT22;28026;48.562;14.440;2023-04-25T05:04:20;4.70;99.90
41592;DHT22;28026;48.562;14.440;2023-04-25T05:06:51;4.80;99.90
41592;DHT22;28026;48.562;14.440;2023-04-25T05:09:22;4.80;99.90
41592;DHT22;28026;48.562;14.440;2023-04-25T05:11:55;4.90;99.90
41592;DHT22;28026;48.562;14.440;2023-04-25T05:14:26;5.10;99.90
41592;DHT22;28026;48.562;14.440;2023-04-25T05:16:57;5.00;99.90
41592;DHT22;28026;48.562;14.440;2023-04-25T05:19:28;5.20;99.90
41592;DHT22;28026;48.562;14.440;2023-04-25T05:21:59;5.50;99.90
41592;DHT22;28026;48.562;14.440;2023-04-25T05:24:30;5.80;99.90
41592;DHT22;28026;48.562;14.440;2023-04-25T05:27:01;5.90;99.90
41592;DHT22;28026;48.562;14.440;2023-04-25T05:29:32;6.30;99.90
41592;DHT22;28026;48.562;14.440;2023-04-25T05:32:04;6.50;99.90
41592;DHT22;28026;48.562;14.440;2023-04-25T05:34:35;6.80;99.90
41592;DHT22;28026;48.562;14.440;2023-04-25T05:37:07;7.00;99.90
41592;DHT22;28026;48.562;14.440;2023-04-25T05:39:38;7.40;99.90
41592;DHT22;28026;48.562;14.440;2023-04-25T05:42:08;7.50;99.90
41592;DHT22;28026;48.562;14.440;2023-04-25T05:44:39;7.30;99.90
41592;DHT22;28026;48.562;14.440;2023-04-25T05:47:10;6.90;99.90
41592;DHT22;28026;48.562;14.440;2023-04-25T05:49:41;6.90;99.90
41592;DHT22;28026;48.562;14.440;2023-04-25T05:52:11;6.90;99.90
41592;DHT22;28026;48.562;14.440;2023-04-25T05:54:42;6.90;99.90
41592;DHT22;28026;48.562;14.440;2023-04-25T05:57:20;7.00;99.90
41592;DHT22;28026;48.562;14.440;2023-04-25T05:59:55;7.50;99.90
41592;DHT22;28026;48.562;14.440;2023-04-25T06:02:26;7.80;99.90
41592;DHT22;28026;48.562;14.440;2023-04-25T06:04:57;8.10;99.90
41592;DHT22;28026;48.562;14.440;2023-04-25T06:07:27;8.00;99.90
41592;DHT22;28026;48.562;14.440;2023-04-25T06:09:58;8.40;99.90
41592;DHT22;28026;48.562;14.440;2023-04-25T06:12:31;8.70;99.90
41592;DHT22;28026;48.562;14.440;2023-04-25T06:15:01;7.80;99.90
41592;DHT22;28026;48.562;14.440;2023-04-25T06:17:33;7.40;99.90
41592;DHT22;28026;48.562;14.440;2023-04-25T06:20:04;6.80;99.90
41592;DHT22;28026;48.562;14.440;2023-04-25T06:22:36;6.40;99.90
41592;DHT22;28026;48.562;14.440;2023-04-25T06:25:07;6.70;99.90
41592;DHT22;28026;48.562;14.440;2023-04-25T06:27:38;6.80;99.90
41592;DHT22;28026;48.562;14.440;2023-04-25T06:30:09;6.50;99.90
41592;DHT22;28026;48.562;14.440;2023-04-25T06:32:42;6.50;99.90
41592;DHT22;28026;48.562;14.440;2023-04-25T06:35:13;6.40;99.90
41592;DHT22;28026;48.562;14.440;2023-04-25T06:37:43;6.20;99.90
41592;DHT22;28026;48.562;14.440;2023-04-25T06:40:14;6.30;99.90
41592;DHT22;28026;48.562;14.440;2023-04-25T06:42:47;6.20;99.90
41592;DHT22;28026;48.562;14.440;2023-04-25T06:45:18;6.20;99.90
41592;DHT22;28026;48.562;14.440;2023-04-25T06:47:49;6.10;99.90
41592;DHT22;28026;48.562;14.440;2023-04-25T06:50:19;6.20;99.90
41592;DHT22;28026;48.562;14.440;2023-04-25T06:52:50;6.40;99.90
41592;DHT22;28026;48.562;14.440;2023-04-25T06:55:21;6.60;99.90
41592;DHT22;28026;48.562;14.440;2023-04-25T06:57:52;6.80;99.90
41592;DHT22;28026;48.562;14.440;2023-04-25T07:00:22;6.80;99.90
41592;DHT22;28026;48.562;14.440;2023-04-25T07:02:53;6.70;99.90
41592;DHT22;28026;48.562;14.440;2023-04-25T07:05:24;6.60;99.90
41592;DHT22;28026;48.562;14.440;2023-04-25T07:07:55;6.90;99.90
41592;DHT22;28026;48.562;14.440;2023-04-25T07:10:25;7.40;99.90
41592;DHT22;28026;48.562;14.440;2023-04-25T07:12:56;8.00;99.90
41592;DHT22;28026;48.562;14.440;2023-04-25T07:15:27;8.30;99.90
41592;DHT22;28026;48.562;14.440;2023-04-25T07:17:58;8.20;99.90
41592;DHT22;28026;48.562;14.440;2023-04-25T07:20:28;8.30;99.90
41592;DHT22;28026;48.562;14.440;2023-04-25T07:23:01;8.50;99.90
41592;DHT22;28026;48.562;14.440;2023-04-25T07:25:31;8.70;99.90
41592;DHT22;28026;48.562;14.440;2023-04-25T07:28:03;9.00;99.90
41592;DHT22;28026;48.562;14.440;2023-04-25T07:30:34;9.20;99.90
41592;DHT22;28026;48.562;14.440;2023-04-25T07:33:05;9.40;99.90
41592;DHT22;28026;48.562;14.440;2023-04-25T07:35:36;9.40;99.90
41592;DHT22;28026;48.562;14.440;2023-04-25T07:38:07;8.60;99.90
41592;DHT22;28026;48.562;14.440;2023-04-25T07:40:38;8.70;99.90
41592;DHT22;28026;48.562;14.440;2023-04-25T07:43:09;9.70;99.90
41592;DHT22;28026;48.562;14.440;2023-04-25T07:45:45;10.50;99.90
41592;DHT22;28026;48.562;14.440;2023-04-25T07:48:17;10.90;99.90
41592;DHT22;28026;48.562;14.440;2023-04-25T07:50:49;11.60;99.90
41592;DHT22;28026;48.562;14.440;2023-04-25T07:53:19;11.60;99.90
41592;DHT22;28026;48.562;14.440;2023-04-25T07:55:50;10.70;99.90
41592;DHT22;28026;48.562;14.440;2023-04-25T07:58:21;10.40;99.90
41592;DHT22;28026;48.562;14.440;2023-04-25T08:00:52;10.10;99.90
41592;DHT22;28026;48.562;14.440;2023-04-25T08:03:23;8.90;99.90
41592;DHT22;28026;48.562;14.440;2023-04-25T08:05:53;9.30;99.90
41592;DHT22;28026;48.562;14.440;2023-04-25T08:08:24;9.40;99.90
41592;DHT22;28026;48.562;14.440;2023-04-25T08:10:55;9.60;99.90
41592;DHT22;28026;48.562;14.440;2023-04-25T08:13:26;9.60;99.90
41592;DHT22;28026;48.562;14.440;2023-04-25T08:15:57;9.10;99.90
41592;DHT22;28026;48.562;14.440;2023-04-25T08:18:28;9.50;99.90
41592;DHT22;28026;48.562;14.440;2023-04-25T08:20:58;9.40;99.90
41592;DHT22;28026;48.562;14.440;2023-04-25T08:23:29;9.30;99.90
41592;DHT22;28026;48.562;14.440;2023-04-25T08:26:01;9.30;99.90
41592;DHT22;28026;48.562;14.440;2023-04-25T08:28:32;9.00;99.90
41592;DHT22;28026;48.562;14.440;2023-04-25T08:31:03;9.00;99.90
41592;DHT22;28026;48.562;14.440;2023-04-25T08:33:34;9.10;99.90
41592;DHT22;28026;48.562;14.440;2023-04-25T08:36:06;9.20;99.90
41592;DHT22;28026;48.562;14.440;2023-04-25T08:38:37;9.00;99.90
41592;DHT22;28026;48.562;14.440;2023-04-25T08:41:07;8.70;99.90
41592;DHT22;28026;48.562;14.440;2023-04-25T08:43:42;8.80;99.90
41592;DHT22;28026;48.562;14.440;2023-04-25T08:46:16;8.80;99.90
41592;DHT22;28026;48.562;14.440;2023-04-25T08:48:48;9.20;99.90
41592;DHT22;28026;48.562;14.440;2023-04-25T08:51:23;9.20;99.90
41592;DHT22;28026;48.562;14.440;2023-04-25T08:54:02;9.60;99.90
41592;DHT22;28026;48.562;14.440;2023-04-25T08:56:43;9.60;99.90
41592;DHT22;28026;48.562;14.440;2023-04-25T08:59:18;9.50;99.90
41592;DHT22;28026;48.562;14.440;2023-04-25T09:01:49;9.20;99.90
41592;DHT22;28026;48.562;14.440;2023-04-25T09:04:21;9.40;99.90
41592;DHT22;28026;48.562;14.440;2023-04-25T09:06:52;9.60;99.90
41592;DHT22;28026;48.562;14.440;2023-04-25T09:09:23;9.40;99.90
41592;DHT22;28026;48.562;14.440;2023-04-25T09:11:54;8.60;99.90
41592;DHT22;28026;48.562;14.440;2023-04-25T09:14:25;8.00;99.90
41592;DHT22;28026;48.562;14.440;2023-04-25T09:17:02;7.40;99.90
41592;DHT22;28026;48.562;14.440;2023-04-25T09:19:35;6.90;99.90
41592;DHT22;28026;48.562;14.440;2023-04-25T09:22:10;6.40;99.90
41592;DHT22;28026;48.562;14.440;2023-04-25T09:24:41;6.10;99.90
41592;DHT22;28026;48.562;14.440;2023-04-25T09:27:18;5.80;99.90
41592;DHT22;28026;48.562;14.440;2023-04-25T09:29:59;6.00;99.90
41592;DHT22;28026;48.562;14.440;2023-04-25T09:32:34;6.20;99.90
41592;DHT22;28026;48.562;14.440;2023-04-25T09:35:05;6.80;99.90
41592;DHT22;28026;48.562;14.440;2023-04-25T09:37:36;7.90;99.90
41592;DHT22;28026;48.562;14.440;2023-04-25T09:40:07;8.70;99.90
41592;DHT22;28026;48.562;14.440;2023-04-25T09:42:41;9.00;99.90
41592;DHT22;28026;48.562;14.440;2023-04-25T09:45:12;9.90;99.90
41592;DHT22;28026;48.562;14.440;2023-04-25T09:47:46;10.50;99.90
41592;DHT22;28026;48.562;14.440;2023-04-25T09:50:16;11.00;99.90
41592;DHT22;28026;48.562;14.440;2023-04-25T09:53:02;11.50;99.90
41592;DHT22;28026;48.562;14.440;2023-04-25T09:55:37;11.20;99.90
41592;DHT22;28026;48.562;14.440;2023-04-25T09:58:10;11.40;99.90
41592;DHT22;28026;48.562;14.440;2023-04-25T10:00:42;11.30;99.90
41592;DHT22;28026;48.562;14.440;2023-04-25T10:03:13;11.70;99.90
41592;DHT22;28026;48.562;14.440;2023-04-25T10:05:47;11.70;99.90
41592;DHT22;28026;48.562;14.440;2023-04-25T10:08:19;12.10;99.90
41592;DHT22;28026;48.562;14.440;2023-04-25T10:10:52;12.30;99.90
41592;DHT22;28026;48.562;14.440;2023-04-25T10:13:23;11.60;99.90
41592;DHT22;28026;48.562;14.440;2023-04-25T10:15:59;11.60;99.90
41592;DHT22;28026;48.562;14.440;2023-04-25T10:18:32;11.60;99.90
41592;DHT22;28026;48.562;14.440;2023-04-25T10:21:04;12.40;99.90
41592;DHT22;28026;48.562;14.440;2023-04-25T10:23:37;12.80;99.90
41592;DHT22;28026;48.562;14.440;2023-04-25T10:26:08;12.00;99.90
41592;DHT22;28026;48.562;14.440;2023-04-25T10:28:55;11.00;99.90
41592;DHT22;28026;48.562;14.440;2023-04-25T10:31:29;10.90;99.90
41592;DHT22;28026;48.562;14.440;2023-04-25T10:34:01;11.20;99.90
41592;DHT22;28026;48.562;14.440;2023-04-25T10:36:32;11.40;99.90
41592;DHT22;28026;48.562;14.440;2023-04-25T10:39:04;11.80;99.90
41592;DHT22;28026;48.562;14.440;2023-04-25T10:41:58;11.60;99.90
41592;DHT22;28026;48.562;14.440;2023-04-25T10:44:32;11.30;99.90
41592;DHT22;28026;48.562;14.440;2023-04-25T10:47:05;10.70;99.90
41592;DHT22;28026;48.562;14.440;2023-04-25T10:49:42;10.50;99.90
41592;DHT22;28026;48.562;14.440;2023-04-25T10:52:17;10.90;99.90
41592;DHT22;28026;48.562;14.440;2023-04-25T10:54:59;11.10;99.90
41592;DHT22;28026;48.562;14.440;2023-04-25T10:57:40;11.30;99.90
41592;DHT22;28026;48.562;14.440;2023-04-25T11:00:15;10.90;99.90
41592;DHT22;28026;48.562;14.440;2023-04-25T11:02:53;11.60;99.90
41592;DHT22;28026;48.562;14.440;2023-04-25T11:05:31;11.80;99.90
41592;DHT22;28026;48.562;14.440;2023-04-25T11:08:05;12.60;99.90
41592;DHT22;28026;48.562;14.440;2023-04-25T11:10:44;12.00;99.90
41592;DHT22;28026;48.562;14.440;2023-04-25T11:13:15;11.50;99.90
41592;DHT22;28026;48.562;14.440;2023-04-25T11:15:50;11.70;99.90
41592;DHT22;28026;48.562;14.440;2023-04-25T11:18:25;11.70;99.90
41592;DHT22;28026;48.562;14.440;2023-04-25T11:20:57;11.20;99.90
41592;DHT22;28026;48.562;14.440;2023-04-25T11:23:29;11.00;99.90
41592;DHT22;28026;48.562;14.440;2023-04-25T11:26:00;10.80;99.90
41592;DHT22;28026;48.562;14.440;2023-04-25T11:28:31;10.30;99.90
41592;DHT22;28026;48.562;14.440;2023-04-25T11:31:02;9.50;99.90
41592;DHT22;28026;48.562;14.440;2023-04-25T11:33:34;8.60;99.90
41592;DHT22;28026;48.562;14.440;2023-04-25T11:36:06;8.50;99.90
41592;DHT22;28026;48.562;14.440;2023-04-25T11:38:37;9.40;99.90
41592;DHT22;28026;48.562;14.440;2023-04-25T11:41:08;10.00;99.90
41592;DHT22;28026;48.562;14.440;2023-04-25T11:43:39;10.10;99.90
41592;DHT22;28026;48.562;14.440;2023-04-25T11:46:10;10.30;99.90
41592;DHT22;28026;48.562;14.440;2023-04-25T11:48:41;10.30;99.90
41592;DHT22;28026;48.562;14.440;2023-04-25T11:51:13;10.20;99.90
41592;DHT22;28026;48.562;14.440;2023-04-25T11:53:45;10.20;99.90
41592;DHT22;28026;48.562;14.440;2023-04-25T11:56:16;10.10;99.90
41592;DHT22;28026;48.562;14.440;2023-04-25T11:59:05;10.30;99.90
41592;DHT22;28026;48.562;14.440;2023-04-25T12:01:37;10.90;99.90
41592;DHT22;28026;48.562;14.440;2023-04-25T12:04:14;10.70;99.90
41592;DHT22;28026;48.562;14.440;2023-04-25T12:06:53;10.80;99.90
41592;DHT22;28026;48.562;14.440;2023-04-25T12:09:32;10.90;99.90
41592;DHT22;28026;48.562;14.440;2023-04-25T12:12:04;11.80;99.90
41592;DHT22;28026;48.562;14.440;2023-04-25T12:14:35;11.20;99.90
41592;DHT22;28026;48.562;14.440;2023-04-25T12:17:06;11.00;99.90
41592;DHT22;28026;48.562;14.440;2023-04-25T12:19:38;10.70;99.90
41592;DHT22;28026;48.562;14.440;2023-04-25T12:22:20;10.80;99.90
41592;DHT22;28026;48.562;14.440;2023-04-25T12:24:53;11.10;99.90
41592;DHT22;28026;48.562;14.440;2023-04-25T12:27:25;11.60;99.90
41592;DHT22;28026;48.562;14.440;2023-04-25T12:29:57;11.30;99.90
41592;DHT22;28026;48.562;14.440;2023-04-25T12:32:28;11.00;99.90
41592;DHT22;28026;48.562;14.440;2023-04-25T12:34:59;10.60;99.90
41592;DHT22;28026;48.562;14.440;2023-04-25T12:37:30;10.90;99.90
41592;DHT22;28026;48.562;14.440;2023-04-25T12:40:01;10.50;99.90
41592;DHT22;28026;48.562;14.440;2023-04-25T12:42:34;10.50;99.90
41592;DHT22;28026;48.562;14.440;2023-04-25T12:45:05;10.60;99.90
41592;DHT22;28026;48.562;14.440;2023-04-25T12:47:36;10.30;99.90
41592;DHT22;28026;48.562;14.440;2023-04-25T12:50:07;10.40;99.90
41592;DHT22;28026;48.562;14.440;2023-04-25T12:52:38;10.40;99.90
41592;DHT22;28026;48.562;14.440;2023-04-25T12:55:09;11.40;99.90
41592;DHT22;28026;48.562;14.440;2023-04-25T12:57:40;11.60;99.90
41592;DHT22;28026;48.562;14.440;2023-04-25T13:00:11;12.70;99.90
41592;DHT22;28026;48.562;14.440;2023-04-25T13:02:45;13.80;99.90
41592;DHT22;28026;48.562;14.440;2023-04-25T13:05:19;14.00;99.90
41592;DHT22;28026;48.562;14.440;2023-04-25T13:07:49;14.50;99.90
41592;DHT22;28026;48.562;14.440;2023-04-25T13:10:21;14.00;99.90
41592;DHT22;28026;48.562;14.440;2023-04-25T13:12:52;12.50;99.90
41592;DHT22;28026;48.562;14.440;2023-04-25T13:15:23;11.50;99.90
41592;DHT22;28026;48.562;14.440;2023-04-25T13:17:53;10.80;99.90
41592;DHT22;28026;48.562;14.440;2023-04-25T13:20:24;11.20;99.90
41592;DHT22;28026;48.562;14.440;2023-04-25T13:22:55;11.90;99.90
41592;DHT22;28026;48.562;14.440;2023-04-25T13:25:26;11.80;99.90
41592;DHT22;28026;48.562;14.440;2023-04-25T13:27:56;12.00;99.90
41592;DHT22;28026;48.562;14.440;2023-04-25T13:30:27;13.40;99.90
41592;DHT22;28026;48.562;14.440;2023-04-25T13:32:58;13.50;99.90
41592;DHT22;28026;48.562;14.440;2023-04-25T13:35:33;14.10;99.90
41592;DHT22;28026;48.562;14.440;2023-04-25T13:38:06;13.00;99.90
41592;DHT22;28026;48.562;14.440;2023-04-25T13:40:36;11.90;99.90
41592;DHT22;28026;48.562;14.440;2023-04-25T13:43:07;12.30;99.90
41592;DHT22;28026;48.562;14.440;2023-04-25T13:45:39;13.50;99.90
41592;DHT22;28026;48.562;14.440;2023-04-25T13:48:09;13.10;99.90
41592;DHT22;28026;48.562;14.440;2023-04-25T13:50:40;12.60;99.90
41592;DHT22;28026;48.562;14.440;2023-04-25T13:53:11;10.60;99.90
41592;DHT22;28026;48.562;14.440;2023-04-25T13:55:42;10.50;99.90
41592;DHT22;28026;48.562;14.440;2023-04-25T13:58:13;9.40;99.90
41592;DHT22;28026;48.562;14.440;2023-04-25T14:00:44;8.80;99.90
41592;DHT22;28026;48.562;14.440;2023-04-25T14:03:16;8.60;99.90
41592;DHT22;28026;48.562;14.440;2023-04-25T14:05:46;8.60;99.90
41592;DHT22;28026;48.562;14.440;2023-04-25T14:08:18;8.30;99.90
41592;DHT22;28026;48.562;14.440;2023-04-25T14:10:48;8.00;99.90
41592;DHT22;28026;48.562;14.440;2023-04-25T14:13:19;7.50;99.90
41592;DHT22;28026;48.562;14.440;2023-04-25T14:15:50;7.60;99.90
41592;DHT22;28026;48.562;14.440;2023-04-25T14:18:21;7.60;99.90
41592;DHT22;28026;48.562;14.440;2023-04-25T14:20:52;7.60;99.90
41592;DHT22;28026;48.562;14.440;2023-04-25T14:23:23;7.60;99.90
41592;DHT22;28026;48.562;14.440;2023-04-25T14:25:53;7.60;99.90
41592;DHT22;28026;48.562;14.440;2023-04-25T14:28:24;7.80;99.90
41592;DHT22;28026;48.562;14.440;2023-04-25T14:30:55;8.00;99.90
41592;DHT22;28026;48.562;14.440;2023-04-25T14:33:26;8.10;99.90
41592;DHT22;28026;48.562;14.440;2023-04-25T14:35:57;8.10;99.90
41592;DHT22;28026;48.562;14.440;2023-04-25T14:38:27;8.40;99.90
41592;DHT22;28026;48.562;14.440;2023-04-25T14:40:58;8.70;99.90
41592;DHT22;28026;48.562;14.440;2023-04-25T14:43:29;9.70;99.90
41592;DHT22;28026;48.562;14.440;2023-04-25T14:46:00;10.80;99.90
41592;DHT22;28026;48.562;14.440;2023-04-25T14:48:31;11.40;99.90
41592;DHT22;28026;48.562;14.440;2023-04-25T14:51:03;12.30;99.90
41592;DHT22;28026;48.562;14.440;2023-04-25T14:53:34;13.10;99.90
41592;DHT22;28026;48.562;14.440;2023-04-25T14:56:05;13.50;99.90
41592;DHT22;28026;48.562;14.440;2023-04-25T14:58:37;13.80;99.90
41592;DHT22;28026;48.562;14.440;2023-04-25T15:01:10;13.30;99.90
41592;DHT22;28026;48.562;14.440;2023-04-25T15:03:41;12.30;99.90
41592;DHT22;28026;48.562;14.440;2023-04-25T15:06:12;11.60;99.90
41592;DHT22;28026;48.562;14.440;2023-04-25T15:08:43;11.10;99.90
41592;DHT22;28026;48.562;14.440;2023-04-25T15:11:14;10.40;99.90
41592;DHT22;28026;48.562;14.440;2023-04-25T15:13:44;10.00;99.90
41592;DHT22;28026;48.562;14.440;2023-04-25T15:16:15;9.80;99.90
41592;DHT22;28026;48.562;14.440;2023-04-25T15:18:46;9.60;99.90
41592;DHT22;28026;48.562;14.440;2023-04-25T15:21:17;9.20;99.90
41592;DHT22;28026;48.562;14.440;2023-04-25T15:23:47;9.50;99.90
41592;DHT22;28026;48.562;14.440;2023-04-25T15:26:18;9.00;99.90
41592;DHT22;28026;48.562;14.440;2023-04-25T15:28:49;8.80;99.90
41592;DHT22;28026;48.562;14.440;2023-04-25T15:31:20;8.60;99.90
41592;DHT22;28026;48.562;14.440;2023-04-25T15:33:52;8.30;99.90
41592;DHT22;28026;48.562;14.440;2023-04-25T15:36:23;7.90;99.90
41592;DHT22;28026;48.562;14.440;2023-04-25T15:38:53;7.80;99.90
41592;DHT22;28026;48.562;14.440;2023-04-25T15:41:24;7.30;99.90
41592;DHT22;28026;48.562;14.440;2023-04-25T15:43:59;7.50;99.90
41592;DHT22;28026;48.562;14.440;2023-04-25T15:46:33;7.20;99.90
41592;DHT22;28026;48.562;14.440;2023-04-25T15:49:03;6.90;99.90
41592;DHT22;28026;48.562;14.440;2023-04-25T15:51:34;7.20;99.90
41592;DHT22;28026;48.562;14.440;2023-04-25T15:54:05;7.40;99.90
41592;DHT22;28026;48.562;14.440;2023-04-25T15:56:36;7.20;99.90